Etusivu
METAR-TAF:

METAR-TAF

Lentoasemat :

Kunming Changshuin kansainvälinen lentoasema

Kunming, Kiina

Leveyspiiri: 25-01N, Pituuspiiri: 102-41E, korkeus merenpinnasta: 1892 m

Tämänhetkinen sää

Tämä raportti tehtiin 47 minuuttia sitten, kello 19.00 UTC
Tuuli 12 kn etelästä/lounaasta
Lämpötila 14°C
Kosteus 94%
Ilmanpaine 1020 hPa
Näkyvyys 10 km tai enemmän
Hajanaisia pilviä 1600 ft:n korkeudessa
Hajonneita pilviä 3600 ft:n korkeudessa

METAR: ZPPP 111900Z 21006MPS 9999 SCT016 BKN036 14/13 Q1020 NOSIG

Aika: 03:47 (19:47 UTC)

Sääennuste

Tämä raportti tehtiin 6 tuntia ja 38 minuuttia sitten, kello 13.09 UTC
Ennuste voimassa 11. päivästä klo 18 UTC - 12. päivään klo 18 UTC
Tuuli 12 kn lounaasta
Näkyvyys 10 km tai enemmän
Hajanaisia pilviä 2300 ft:n korkeudessa
Hajonneita pilviä 3600 ft:n korkeudessa

TAF: ZPPP 111309Z 1118/1218 22006MPS 9999 SCT023 BKN036 TX20/1208Z TN10/1123Z

Säähavainnot ja -ennusteet yli 4000 lentoasemalta (METAR- ja TAF-raportit).

Käytössä olevat sääasemat on merkitty karttaan keltaisilla ja punaisilla pisteillä.

Aseta hiiri pisteen päälle nähdäksesi sääaseman nimen.

Klikkaa sitten nähdäksesi säähavainnot ja -ennusteet.

Kartan vaihtaminen: klikkaa mustalla rastilla varustettuja vihreitä pisteitä, niin voit zoomata sisään; viivalla varustettua vihreää pistettä, niin voit zoomata ulos tai vihreitä nuolia, niin pääset viereisille kartoille.


METAR-TAF: